Terminal Aerodrome Forecast
Issued by NWS Memphis, TN

Home | Current Version | Previous Version | Text Only | Print | Product List | Glossary On
Versions: 1 2 3 4 5 6 7 8 9 10 11 12 13 14 15 16 17 18 19 20 21 22 23 24 25 26 27 28 29
000
FTUS44 KMEG 011126
TAFMEM
TAF
KMEM 011126Z 0112/0212 09005KT P6SM VCSH SCT015 OVC060
      TEMPO 0113/0117 -SHRA BKN015
     FM011700 VRB03KT 5SM -SHRA BR BKN006 OVC010
      TEMPO 0118/0122 SCT006
     FM020100 02008KT P6SM -RA BKN008 OVC012
     FM020800 02014G22KT P6SM VCSH SCT008 OVC015=

USA.gov is the U.S. government's official web portal to all federal, state and local government web resources and services.